Portada
METAR-TAF:

METAR-TAF

Aeroports :

Shenyang, Xina

latitud: 41-48N, longitud: 123-24E, altitud: 35 m

Observació

L'informe es va fer fa 24 minuts, a les 11:30 UTC
Vent 2 kt del Sud/Sud-Est
Temperatura -1°C
Humitat 54%
Pressió 1026 hPa
Visibilitat 10 km o més
sense núvols per sota de 1500 mi sense presència de cumulonimbus.

METAR: ZYTX 271130Z 16001MPS CAVOK M01/M09 Q1026 NOSIG

Hora: 19:54 (11:54 UTC)

Pronòstic

L'informe es va fer fa 4 hores i 29 minuts, a les 07:25 UTC
Pronòstic vàlid del 27 a les 12 UTC al 28 a les 12 UTC
Vent 8 kt del Sud
Visibilitat: 6000 m
Cel ennuvolat a una alçada de 4000 ft
Evolucionant progressivament
l' 27 a les 22 UTC al 27 a les 23 UTC
Visibilitat: 2000 m
neu, pluja

TAF: ZYTX 270725Z 2712/2812 18004MPS 6000 BKN040 TX04/2806Z TNM04/2722Z BECMG 2722/2723 2000 -SNRA

Observacions i pronòstics meteorològics de més de 4000 aeroports (METAR i TAF).

Les estacions disponibles són els punts grocs i vermells al mapa.

Posi el ratolí al punt desitjat per veure el nom de l'estació.

Feu clic per veure les observacions i els pronòstics meteorològics.

Per canviar el mapa: feu clic els botons verds amb una creu de color negre per apropar; al botó verd amb un guió per allunyar la imatge; o en les fletxes verdes per a mapes adjacents.


METAR-TAF: